Time;durP1;ratioP1;P1;durP2;ratioP2;P2;SDS_P1;SDS_P2;PMS_P1;PMS_P2;Temp;Humidity;BMP_temperature;BMP_pressure;BME280_temperature;BME280_humidity;BME280_pressure;Samples;Min_cycle;Max_cycle;Signal;HPM_P1;HPM_P2
2023/07/17 00:00:29;;;;;;;;;;;28.50;62.20;;;;;;5033209;28;86460;-49
2023/07/17 00:02:54;;;;;;;;;;;28.50;62.40;;;;;;5028937;28;88310;-53
2023/07/17 00:05:20;;;;;;;;;;;28.50;62.30;;;;;;5031844;28;87881;-53
2023/07/17 00:07:46;;;;;;;;;;;28.50;62.20;;;;;;5030729;28;88126;-50
2023/07/17 00:10:11;;;;;;;;;;;28.40;62.30;;;;;;5029297;28;91559;-55
2023/07/17 00:12:37;;;;;;;;;;;28.40;62.40;;;;;;5030254;28;87161;-50
2023/07/17 00:15:05;;;;;;;;;;;28.50;62.20;;;;;;5033403;28;87420;-54
2023/07/17 00:17:31;;;;;;;;;;;28.40;62.30;;;;;;5032111;28;88574;-50
2023/07/17 00:19:56;;;;;;;;;;;28.40;62.20;;;;;;5030845;27;87088;-51
2023/07/17 00:22:23;;;;;;;;;;;28.40;62.30;;;;;;5034197;28;87574;-54
2023/07/17 00:24:49;;;;;;;;;;;28.40;62.30;;;;;;5036039;28;88494;-52
2023/07/17 00:27:14;;;;;;;;;;;28.40;62.30;;;;;;5033936;28;87335;-56
2023/07/17 00:29:40;;;;;;;;;;;28.40;62.30;;;;;;5035289;28;87518;-51
2023/07/17 00:32:06;;;;;;;;;;;28.40;62.30;;;;;;5034118;28;90430;-49
2023/07/17 00:34:32;;;;;;;;;;;28.30;62.20;;;;;;5033697;28;86988;-52
2023/07/17 00:36:57;;;;;;;;;;;28.30;62.20;;;;;;5034466;28;87493;-55
2023/07/17 00:39:23;;;;;;;;;;;28.30;62.20;;;;;;5038772;28;87535;-52
2023/07/17 00:41:50;;;;;;;;;;;28.30;62.20;;;;;;5032559;27;87087;-51
2023/07/17 00:44:15;;;;;;;;;;;28.30;62.20;;;;;;5032879;28;87586;-49
2023/07/17 00:46:41;;;;;;;;;;;28.30;62.30;;;;;;5036711;28;87102;-51
2023/07/17 00:49:07;;;;;;;;;;;28.30;62.20;;;;;;5032842;28;87192;-51
2023/07/17 00:51:33;;;;;;;;;;;28.20;62.20;;;;;;5033733;28;87895;-55
2023/07/17 00:54:00;;;;;;;;;;;28.20;62.20;;;;;;5035470;28;87150;-52
2023/07/17 00:56:27;;;;;;;;;;;28.20;62.20;;;;;;5033250;28;88800;-50
2023/07/17 00:58:53;;;;;;;;;;;28.20;62.20;;;;;;5033851;28;89503;-52
2023/07/17 01:01:18;;;;;;;;;;;28.20;62.20;;;;;;5038413;28;87165;-50
2023/07/17 01:03:44;;;;;;;;;;;28.20;62.20;;;;;;5033836;28;88237;-54
2023/07/17 01:06:09;;;;;;;;;;;28.20;62.30;;;;;;5036002;28;87195;-51
2023/07/17 01:08:35;;;;;;;;;;;28.20;62.20;;;;;;5033082;28;87402;-53
2023/07/17 01:11:01;;;;;;;;;;;28.10;62.30;;;;;;5035798;28;88224;-53
2023/07/17 01:13:26;;;;;;;;;;;28.10;62.30;;;;;;5032101;28;86495;-56
2023/07/17 01:15:52;;;;;;;;;;;28.10;62.40;;;;;;5036018;28;87101;-54
2023/07/17 01:18:17;;;;;;;;;;;28.10;62.30;;;;;;5033290;28;88675;-52
2023/07/17 01:20:43;;;;;;;;;;;28.00;62.20;;;;;;5033367;28;88144;-55
2023/07/17 01:23:08;;;;;;;;;;;28.00;62.20;;;;;;5036241;28;88156;-54
2023/07/17 01:25:34;;;;;;;;;;;28.00;62.30;;;;;;5033586;28;87147;-54
2023/07/17 01:27:59;;;;;;;;;;;28.00;62.20;;;;;;5034641;28;87501;-51
2023/07/17 01:30:25;;;;;;;;;;;28.00;62.40;;;;;;5033091;28;89489;-51
2023/07/17 01:32:51;;;;;;;;;;;27.90;62.40;;;;;;5034818;28;87923;-56
2023/07/17 01:35:16;;;;;;;;;;;27.90;62.40;;;;;;5030897;27;87768;-51
2023/07/17 01:37:42;;;;;;;;;;;27.90;62.40;;;;;;5035741;28;87176;-54
2023/07/17 01:40:09;;;;;;;;;;;27.90;62.30;;;;;;5031369;28;87125;-54
2023/07/17 01:42:34;;;;;;;;;;;27.90;62.30;;;;;;5029643;28;88913;-54
2023/07/17 01:45:00;;;;;;;;;;;27.90;62.40;;;;;;5037649;28;89015;-51
2023/07/17 01:47:25;;;;;;;;;;;27.80;62.50;;;;;;5032810;28;88429;-54
2023/07/17 01:49:51;;;;;;;;;;;27.80;62.40;;;;;;5030647;28;91448;-52
2023/07/17 01:52:17;;;;;;;;;;;27.80;62.40;;;;;;5033351;28;87092;-54
2023/07/17 01:54:43;;;;;;;;;;;27.80;62.50;;;;;;5034042;27;87910;-51
2023/07/17 01:57:08;;;;;;;;;;;27.80;62.50;;;;;;5033037;28;87907;-56
2023/07/17 01:59:34;;;;;;;;;;;27.80;62.30;;;;;;5033516;28;86949;-51
2023/07/17 02:02:00;;;;;;;;;;;27.70;62.40;;;;;;5034701;28;88523;-53
2023/07/17 02:04:26;;;;;;;;;;;27.70;62.50;;;;;;5031762;28;89608;-51
2023/07/17 02:06:51;;;;;;;;;;;27.70;62.60;;;;;;5037723;28;87806;-53
2023/07/17 02:09:17;;;;;;;;;;;27.70;62.50;;;;;;5030949;28;89251;-52
2023/07/17 02:11:42;;;;;;;;;;;27.60;62.40;;;;;;5034124;28;87048;-51
2023/07/17 02:14:08;;;;;;;;;;;27.70;62.50;;;;;;5032182;28;87377;-53
2023/07/17 02:16:34;;;;;;;;;;;27.60;62.50;;;;;;5034522;28;87866;-50
2023/07/17 02:18:59;;;;;;;;;;;27.60;62.50;;;;;;5032671;28;87200;-54
2023/07/17 02:21:25;;;;;;;;;;;27.60;62.40;;;;;;5033515;27;87814;-53
2023/07/17 02:23:51;;;;;;;;;;;27.60;62.50;;;;;;5032416;28;88297;-55
2023/07/17 02:26:16;;;;;;;;;;;27.60;62.50;;;;;;5036157;28;86456;-54
2023/07/17 02:28:42;;;;;;;;;;;27.60;62.40;;;;;;5032642;28;88019;-53
2023/07/17 02:31:07;;;;;;;;;;;27.50;62.40;;;;;;5034022;28;87105;-55
2023/07/17 02:33:33;;;;;;;;;;;27.60;62.40;;;;;;5031932;28;88122;-56
2023/07/17 02:35:58;;;;;;;;;;;27.50;62.40;;;;;;5030165;28;88137;-55
2023/07/17 02:38:24;;;;;;;;;;;27.50;62.40;;;;;;5034706;28;87149;-56
2023/07/17 02:40:50;;;;;;;;;;;27.50;62.40;;;;;;5031242;27;88819;-57
2023/07/17 02:43:15;;;;;;;;;;;27.50;62.30;;;;;;5030193;28;87687;-51
2023/07/17 02:45:41;;;;;;;;;;;27.40;62.40;;;;;;5034868;28;87110;-50
2023/07/17 02:48:06;;;;;;;;;;;27.50;62.50;;;;;;5034433;28;87546;-51
2023/07/17 02:50:32;;;;;;;;;;;27.40;62.30;;;;;;5031111;28;86654;-53
2023/07/17 02:52:57;;;;;;;;;;;27.40;62.40;;;;;;5033607;27;87440;-53
2023/07/17 02:55:23;;;;;;;;;;;27.40;62.40;;;;;;5032065;28;87995;-52
2023/07/17 02:57:49;;;;;;;;;;;27.40;62.30;;;;;;5029468;28;88086;-54
2023/07/17 03:00:15;;;;;;;;;;;27.40;63.00;;;;;;5031029;28;91385;-54
2023/07/17 03:02:41;;;;;;;;;;;27.30;62.40;;;;;;5032812;28;88418;-52
2023/07/17 03:05:10;;;;;;;;;;;27.30;62.30;;;;;;5031793;28;87131;-55
2023/07/17 03:07:43;;;;;;;;;;;27.30;62.40;;;;;;5029944;28;87555;-52
2023/07/17 03:10:09;;;;;;;;;;;27.30;62.40;;;;;;5031574;28;88155;-47
2023/07/17 03:12:34;;;;;;;;;;;27.30;62.40;;;;;;5030887;28;87393;-54
2023/07/17 03:15:00;;;;;;;;;;;27.30;62.40;;;;;;5031907;28;87508;-57
2023/07/17 03:17:26;;;;;;;;;;;27.30;62.50;;;;;;5031068;28;87686;-52
2023/07/17 03:19:51;;;;;;;;;;;27.20;62.40;;;;;;5030986;28;87530;-52
2023/07/17 03:22:17;;;;;;;;;;;27.30;62.50;;;;;;5030733;28;88872;-55
2023/07/17 03:24:44;;;;;;;;;;;27.20;62.40;;;;;;5028210;28;87656;-53
2023/07/17 03:27:09;;;;;;;;;;;27.20;62.40;;;;;;5024830;28;88043;-54
2023/07/17 03:29:35;;;;;;;;;;;27.20;62.30;;;;;;5027598;28;87974;-53
2023/07/17 03:32:00;;;;;;;;;;;27.20;62.40;;;;;;5029765;28;87134;-51
2023/07/17 03:34:26;;;;;;;;;;;27.20;62.40;;;;;;5029233;28;87578;-51
2023/07/17 03:36:52;;;;;;;;;;;27.20;62.40;;;;;;5020707;28;87315;-55
2023/07/17 03:39:18;;;;;;;;;;;27.20;62.40;;;;;;5030650;28;87502;-54
2023/07/17 03:41:43;;;;;;;;;;;27.20;62.40;;;;;;5029120;28;87788;-55
2023/07/17 03:44:09;;;;;;;;;;;27.10;62.30;;;;;;5028430;28;87845;-54
2023/07/17 03:46:34;;;;;;;;;;;27.10;62.40;;;;;;5017367;28;88120;-49
2023/07/17 03:49:00;;;;;;;;;;;27.10;62.30;;;;;;5032125;28;87187;-48
2023/07/17 03:51:25;;;;;;;;;;;27.10;62.30;;;;;;5031067;28;87178;-53
2023/07/17 03:53:50;;;;;;;;;;;27.10;62.30;;;;;;5024636;28;87645;-52
2023/07/17 03:56:16;;;;;;;;;;;27.00;62.40;;;;;;5019074;28;87571;-56
2023/07/17 03:58:42;;;;;;;;;;;27.10;62.50;;;;;;5030822;28;87953;-52
2023/07/17 04:01:07;;;;;;;;;;;27.10;62.40;;;;;;5030390;28;87934;-51
2023/07/17 04:03:33;;;;;;;;;;;27.00;62.30;;;;;;5019980;28;86710;-53
2023/07/17 04:05:58;;;;;;;;;;;27.00;62.40;;;;;;5025478;28;87073;-54
2023/07/17 04:08:23;;;;;;;;;;;27.00;62.40;;;;;;5030497;28;87981;-52
2023/07/17 04:10:49;;;;;;;;;;;27.00;62.50;;;;;;5029812;28;88062;-50
2023/07/17 04:13:14;;;;;;;;;;;27.00;62.50;;;;;;5025566;28;88651;-54
2023/07/17 04:15:41;;;;;;;;;;;26.90;62.30;;;;;;5027152;28;87253;-55
2023/07/17 04:18:06;;;;;;;;;;;26.90;62.40;;;;;;5031581;28;88789;-50
2023/07/17 04:20:32;;;;;;;;;;;26.90;62.40;;;;;;5029183;28;87929;-54
2023/07/17 04:22:58;;;;;;;;;;;26.90;62.50;;;;;;5024137;28;87898;-50
2023/07/17 04:25:24;;;;;;;;;;;26.90;62.50;;;;;;5024565;28;88023;-54
2023/07/17 04:27:49;;;;;;;;;;;26.90;62.50;;;;;;5028176;28;86895;-51
2023/07/17 04:30:15;;;;;;;;;;;26.90;62.50;;;;;;5029131;28;87124;-57
2023/07/17 04:32:40;;;;;;;;;;;26.90;62.50;;;;;;5025350;28;87836;-50
2023/07/17 04:35:06;;;;;;;;;;;26.90;62.50;;;;;;5028517;28;88988;-48
2023/07/17 04:37:31;;;;;;;;;;;26.90;62.50;;;;;;5031167;28;91211;-49
2023/07/17 04:39:57;;;;;;;;;;;26.90;62.60;;;;;;5022360;28;88836;-52
2023/07/17 04:42:22;;;;;;;;;;;26.90;62.50;;;;;;5021077;28;88468;-57
2023/07/17 04:44:48;;;;;;;;;;;26.80;62.50;;;;;;5029348;28;87424;-53
2023/07/17 04:47:13;;;;;;;;;;;26.80;62.50;;;;;;5029276;28;88234;-52
2023/07/17 04:49:39;;;;;;;;;;;26.80;62.50;;;;;;5028023;28;87286;-53
2023/07/17 04:52:05;;;;;;;;;;;26.80;62.50;;;;;;5017670;28;87413;-52
2023/07/17 04:54:30;;;;;;;;;;;26.80;62.50;;;;;;5031690;28;87175;-54
2023/07/17 04:56:56;;;;;;;;;;;26.80;62.60;;;;;;5032223;28;87145;-52
2023/07/17 04:59:21;;;;;;;;;;;26.80;62.60;;;;;;5020303;28;89256;-56
2023/07/17 05:01:46;;;;;;;;;;;26.80;62.70;;;;;;5024087;28;87278;-49
2023/07/17 05:04:12;;;;;;;;;;;26.70;62.70;;;;;;5029622;28;87528;-55
2023/07/17 05:06:38;;;;;;;;;;;26.80;62.70;;;;;;5024001;27;89434;-51
2023/07/17 05:09:03;;;;;;;;;;;26.70;62.80;;;;;;5027951;28;88925;-53
2023/07/17 05:11:29;;;;;;;;;;;26.70;62.90;;;;;;5032002;28;87558;-50
2023/07/17 05:13:55;;;;;;;;;;;26.70;62.80;;;;;;5031897;28;88045;-56
2023/07/17 05:16:20;;;;;;;;;;;26.80;62.80;;;;;;5026020;28;87198;-54
2023/07/17 05:18:46;;;;;;;;;;;26.80;62.70;;;;;;5028670;28;88172;-52
2023/07/17 05:21:11;;;;;;;;;;;26.80;62.80;;;;;;5023371;28;87397;-55
2023/07/17 05:23:37;;;;;;;;;;;26.70;62.70;;;;;;5034220;28;87996;-56
2023/07/17 05:26:05;;;;;;;;;;;26.80;62.80;;;;;;5028802;28;88394;-53
2023/07/17 05:28:31;;;;;;;;;;;26.80;62.80;;;;;;5025058;28;87887;-52
2023/07/17 05:30:57;;;;;;;;;;;26.80;62.90;;;;;;5030724;28;88815;-54
2023/07/17 05:33:23;;;;;;;;;;;26.80;62.80;;;;;;5028328;28;87221;-48
2023/07/17 05:35:50;;;;;;;;;;;26.80;62.90;;;;;;5029730;28;87116;-49
2023/07/17 05:38:15;;;;;;;;;;;26.80;62.90;;;;;;5026926;28;87447;-54
2023/07/17 05:40:41;;;;;;;;;;;26.80;62.90;;;;;;5031337;28;87471;-56
2023/07/17 05:43:07;;;;;;;;;;;26.80;62.90;;;;;;5031790;27;88480;-53
2023/07/17 05:45:33;;;;;;;;;;;26.80;62.90;;;;;;5025114;28;88527;-54
2023/07/17 05:47:58;;;;;;;;;;;26.80;63.00;;;;;;5019918;28;88109;-53
2023/07/17 05:50:24;;;;;;;;;;;26.80;63.00;;;;;;5027892;28;88307;-51
2023/07/17 05:52:50;;;;;;;;;;;26.80;63.00;;;;;;5034906;28;87923;-48
2023/07/17 05:55:15;;;;;;;;;;;26.80;63.10;;;;;;5031637;28;87464;-53
2023/07/17 05:57:41;;;;;;;;;;;26.80;63.20;;;;;;5027340;28;88165;-54
2023/07/17 06:00:10;;;;;;;;;;;26.80;63.20;;;;;;5030296;28;89511;-52
2023/07/17 06:02:35;;;;;;;;;;;26.80;63.20;;;;;;5031973;28;87025;-55
2023/07/17 06:05:01;;;;;;;;;;;26.80;63.90;;;;;;5035165;28;87554;-53
2023/07/17 06:07:28;;;;;;;;;;;26.80;63.30;;;;;;5031343;28;88853;-54
2023/07/17 06:09:54;;;;;;;;;;;26.80;63.30;;;;;;5029071;28;87510;-51
2023/07/17 06:12:19;;;;;;;;;;;26.80;63.40;;;;;;5032635;28;90265;-54
2023/07/17 06:14:45;;;;;;;;;;;26.80;63.40;;;;;;5026126;28;87255;-53
2023/07/17 06:17:10;;;;;;;;;;;26.80;63.40;;;;;;5021094;28;87447;-55
2023/07/17 06:19:36;;;;;;;;;;;26.80;63.50;;;;;;5031573;28;88185;-52
2023/07/17 06:22:01;;;;;;;;;;;26.70;63.40;;;;;;5035444;28;87115;-53
2023/07/17 06:24:26;;;;;;;;;;;26.80;63.50;;;;;;5026700;28;88305;-55
2023/07/17 06:26:52;;;;;;;;;;;26.80;63.50;;;;;;5017552;27;87425;-54
2023/07/17 06:29:18;;;;;;;;;;;26.80;63.50;;;;;;5026147;28;87297;-54
2023/07/17 06:31:43;;;;;;;;;;;26.80;63.50;;;;;;5034384;28;87294;-54
2023/07/17 06:34:09;;;;;;;;;;;26.80;63.50;;;;;;5022583;28;87106;-52
2023/07/17 06:36:34;;;;;;;;;;;26.80;63.60;;;;;;5024085;28;88086;-52
2023/07/17 06:39:00;;;;;;;;;;;26.80;63.60;;;;;;5030681;28;89730;-53
2023/07/17 06:41:25;;;;;;;;;;;26.80;63.60;;;;;;5031838;28;87182;-52
2023/07/17 06:43:51;;;;;;;;;;;26.80;63.70;;;;;;5027986;28;87897;-52
2023/07/17 06:46:17;;;;;;;;;;;26.80;63.60;;;;;;5025876;28;87681;-51
2023/07/17 06:48:42;;;;;;;;;;;26.80;63.60;;;;;;5033829;28;87265;-53
2023/07/17 06:51:08;;;;;;;;;;;26.80;63.70;;;;;;5029249;28;88317;-54
2023/07/17 06:53:33;;;;;;;;;;;26.80;64.30;;;;;;5024114;28;87208;-51
2023/07/17 06:56:00;;;;;;;;;;;26.80;63.70;;;;;;5027000;28;89100;-55
2023/07/17 06:58:26;;;;;;;;;;;26.80;63.70;;;;;;5030295;28;87851;-52
2023/07/17 07:00:58;;;;;;;;;;;26.80;63.70;;;;;;5026266;28;87934;-53
2023/07/17 07:03:25;;;;;;;;;;;26.80;63.70;;;;;;5020988;28;88987;-53
2023/07/17 07:05:57;;;;;;;;;;;26.80;63.70;;;;;;5034147;28;89288;-54
2023/07/17 07:08:24;;;;;;;;;;;26.80;63.70;;;;;;5031504;28;88002;-54
2023/07/17 07:10:53;;;;;;;;;;;26.80;63.70;;;;;;5017887;28;87701;-54
2023/07/17 07:13:19;;;;;;;;;;;26.80;63.70;;;;;;5015340;28;87608;-54
2023/07/17 07:15:45;;;;;;;;;;;26.80;63.90;;;;;;5028582;28;88753;-53
2023/07/17 07:18:10;;;;;;;;;;;26.80;63.80;;;;;;5033682;28;87206;-50
2023/07/17 07:20:36;;;;;;;;;;;26.80;63.70;;;;;;5023451;28;87231;-51
2023/07/17 07:23:02;;;;;;;;;;;26.80;63.80;;;;;;5026806;28;87325;-53
2023/07/17 07:25:27;;;;;;;;;;;26.80;63.90;;;;;;5032010;28;88610;-47
2023/07/17 07:27:53;;;;;;;;;;;26.80;64.00;;;;;;5031726;28;87392;-52
2023/07/17 07:30:18;;;;;;;;;;;26.80;63.90;;;;;;5022225;27;89258;-54
2023/07/17 07:32:43;;;;;;;;;;;26.80;64.00;;;;;;5028330;28;87212;-50
2023/07/17 07:35:09;;;;;;;;;;;26.80;64.00;;;;;;5031021;28;87438;-53
2023/07/17 07:37:34;;;;;;;;;;;26.80;64.00;;;;;;5028541;28;87905;-52
2023/07/17 07:40:00;;;;;;;;;;;26.80;64.00;;;;;;5021353;28;87168;-53
2023/07/17 07:42:26;;;;;;;;;;;26.80;64.00;;;;;;5029691;28;87729;-50
2023/07/17 07:44:51;;;;;;;;;;;26.90;64.00;;;;;;5030409;28;88078;-54
2023/07/17 07:47:16;;;;;;;;;;;26.80;64.00;;;;;;5030097;28;87101;-50
2023/07/17 07:49:42;;;;;;;;;;;26.90;64.10;;;;;;5035016;28;88056;-55
2023/07/17 07:52:07;;;;;;;;;;;26.80;64.00;;;;;;5031670;28;87302;-53
2023/07/17 07:54:33;;;;;;;;;;;26.80;64.00;;;;;;5032649;28;87804;-53
2023/07/17 07:56:58;;;;;;;;;;;26.80;64.00;;;;;;5032152;28;87458;-57
2023/07/17 07:59:24;;;;;;;;;;;26.90;64.10;;;;;;5029830;28;87044;-51
2023/07/17 08:01:49;;;;;;;;;;;26.90;64.20;;;;;;5029718;28;87297;-51
2023/07/17 08:04:15;;;;;;;;;;;26.90;64.10;;;;;;5030786;28;87629;-53
2023/07/17 08:06:40;;;;;;;;;;;26.80;64.00;;;;;;5033975;28;86396;-50
2023/07/17 08:09:06;;;;;;;;;;;26.90;64.10;;;;;;5030413;27;87167;-53
2023/07/17 08:11:32;;;;;;;;;;;26.90;64.10;;;;;;5036609;28;88159;-53
2023/07/17 08:13:57;;;;;;;;;;;26.80;64.00;;;;;;5029110;28;88062;-52
2023/07/17 08:16:23;;;;;;;;;;;26.90;64.00;;;;;;5032466;28;88295;-52
2023/07/17 08:18:48;;;;;;;;;;;26.90;64.00;;;;;;5030611;28;87266;-55
2023/07/17 08:21:14;;;;;;;;;;;26.90;64.10;;;;;;5032099;27;88725;-49
2023/07/17 08:23:40;;;;;;;;;;;26.90;64.20;;;;;;5030706;28;89128;-50
2023/07/17 08:26:05;;;;;;;;;;;26.90;64.10;;;;;;5032049;28;87100;-54
2023/07/17 08:28:31;;;;;;;;;;;26.90;64.00;;;;;;5031851;28;88951;-51
2023/07/17 08:30:56;;;;;;;;;;;26.90;64.00;;;;;;5033819;28;87503;-55
2023/07/17 08:33:22;;;;;;;;;;;26.90;64.00;;;;;;5028898;28;89209;-52
2023/07/17 08:35:48;;;;;;;;;;;26.90;63.90;;;;;;5030327;27;88976;-51
2023/07/17 08:38:14;;;;;;;;;;;26.90;63.90;;;;;;5032433;28;88293;-51
2023/07/17 08:40:39;;;;;;;;;;;26.90;63.90;;;;;;5030333;27;88446;-51
2023/07/17 08:43:06;;;;;;;;;;;26.90;63.80;;;;;;5036823;28;87853;-48
2023/07/17 08:45:32;;;;;;;;;;;26.90;63.90;;;;;;5031868;28;87168;-53
2023/07/17 08:47:58;;;;;;;;;;;26.90;63.90;;;;;;5033490;28;87463;-53
2023/07/17 08:50:25;;;;;;;;;;;26.90;63.90;;;;;;5035586;28;88059;-49
2023/07/17 08:52:51;;;;;;;;;;;26.90;64.50;;;;;;5037939;28;87183;-51
2023/07/17 08:55:16;;;;;;;;;;;26.90;63.90;;;;;;5035004;28;88874;-55
2023/07/17 08:57:43;;;;;;;;;;;26.90;63.90;;;;;;5035689;28;87182;-50
2023/07/17 09:00:09;;;;;;;;;;;27.00;64.00;;;;;;5032856;28;87547;-50
2023/07/17 09:02:34;;;;;;;;;;;26.90;64.00;;;;;;5030890;28;90231;-51
2023/07/17 09:05:00;;;;;;;;;;;27.00;64.00;;;;;;5036556;28;87188;-51
2023/07/17 09:07:25;;;;;;;;;;;27.00;64.00;;;;;;5033208;28;87059;-52
2023/07/17 09:10:10;;;;;;;;;;;27.00;64.20;;;;;;5036334;28;89087;-51
2023/07/17 09:12:35;;;;;;;;;;;27.00;64.10;;;;;;5035824;28;87445;-55
2023/07/17 09:15:00;;;;;;;;;;;27.00;64.10;;;;;;5035509;28;87093;-50
2023/07/17 09:17:26;;;;;;;;;;;27.00;64.10;;;;;;5031137;28;87165;-54
2023/07/17 09:19:51;;;;;;;;;;;27.00;64.00;;;;;;5036245;28;87494;-52
2023/07/17 09:22:18;;;;;;;;;;;27.00;64.00;;;;;;5032600;28;88181;-55
2023/07/17 09:24:44;;;;;;;;;;;27.00;64.00;;;;;;5035521;28;87439;-47
2023/07/17 09:27:09;;;;;;;;;;;27.10;64.00;;;;;;5032785;28;88065;-55
2023/07/17 09:29:40;;;;;;;;;;;27.10;64.00;;;;;;5033270;28;89618;-53
2023/07/17 09:32:24;;;;;;;;;;;27.10;64.00;;;;;;5034851;28;86913;-54
2023/07/17 09:34:51;;;;;;;;;;;27.10;63.90;;;;;;5033657;27;87216;-50
2023/07/17 09:37:16;;;;;;;;;;;27.10;63.90;;;;;;5037320;28;88758;-51
2023/07/17 09:39:42;;;;;;;;;;;27.10;63.90;;;;;;5033998;28;88380;-53
2023/07/17 09:42:26;;;;;;;;;;;27.10;63.90;;;;;;5033713;28;88130;-51
2023/07/17 09:44:52;;;;;;;;;;;27.10;63.90;;;;;;5029312;28;86932;-52
2023/07/17 09:47:21;;;;;;;;;;;27.10;63.90;;;;;;5034743;27;87008;-52
2023/07/17 09:49:47;;;;;;;;;;;27.10;64.00;;;;;;5031035;28;87952;-54
2023/07/17 09:52:14;;;;;;;;;;;27.10;64.00;;;;;;5033913;28;88099;-53
2023/07/17 09:54:39;;;;;;;;;;;27.10;63.90;;;;;;5032966;27;88388;-53
2023/07/17 09:57:07;;;;;;;;;;;27.10;63.90;;;;;;5035220;28;89436;-50
2023/07/17 09:59:35;;;;;;;;;;;27.20;64.00;;;;;;5034814;28;87157;-51
2023/07/17 10:02:02;;;;;;;;;;;27.20;63.90;;;;;;5030707;28;88064;-48
2023/07/17 10:04:31;;;;;;;;;;;27.20;63.90;;;;;;5031154;28;87223;-53
2023/07/17 10:06:59;;;;;;;;;;;27.20;63.80;;;;;;5033615;27;88392;-56
2023/07/17 10:09:25;;;;;;;;;;;27.20;63.80;;;;;;5034548;28;87520;-54
2023/07/17 10:11:51;;;;;;;;;;;27.30;63.70;;;;;;5032685;28;87189;-48
2023/07/17 10:14:17;;;;;;;;;;;27.30;63.70;;;;;;5033747;28;91080;-53
2023/07/17 10:16:42;;;;;;;;;;;27.30;63.70;;;;;;5030279;28;89060;-53
2023/07/17 10:19:08;;;;;;;;;;;27.30;63.70;;;;;;5031002;28;87206;-53
2023/07/17 10:21:34;;;;;;;;;;;27.30;63.60;;;;;;5034029;28;87413;-55
2023/07/17 10:24:02;;;;;;;;;;;27.40;63.60;;;;;;5034915;28;87489;-51
2023/07/17 10:26:31;;;;;;;;;;;27.30;63.60;;;;;;5033065;28;88675;-53
2023/07/17 10:28:57;;;;;;;;;;;27.40;63.60;;;;;;5032929;28;89230;-54
2023/07/17 10:31:25;;;;;;;;;;;27.40;63.50;;;;;;5033177;28;87128;-50
2023/07/17 10:34:02;;;;;;;;;;;27.40;63.50;;;;;;5032641;28;86595;-57
2023/07/17 10:36:36;;;;;;;;;;;27.40;63.40;;;;;;5028936;28;89687;-52
2023/07/17 10:39:03;;;;;;;;;;;27.40;63.30;;;;;;5032598;28;86936;-56
2023/07/17 10:41:29;;;;;;;;;;;27.40;63.30;;;;;;5035107;28;88818;-51
2023/07/17 10:43:56;;;;;;;;;;;27.50;63.40;;;;;;5031917;28;87207;-51
2023/07/17 10:46:25;;;;;;;;;;;27.50;63.30;;;;;;5030695;28;88584;-55
2023/07/17 10:48:51;;;;;;;;;;;27.50;63.20;;;;;;5030523;28;89552;-54
2023/07/17 10:51:16;;;;;;;;;;;27.50;63.20;;;;;;5034307;28;87118;-55
2023/07/17 10:53:42;;;;;;;;;;;27.50;63.10;;;;;;5034928;28;88779;-50
2023/07/17 10:56:07;;;;;;;;;;;27.50;63.10;;;;;;5032824;28;87536;-53
2023/07/17 10:58:33;;;;;;;;;;;27.60;63.10;;;;;;5033702;28;86450;-51
2023/07/17 11:01:03;;;;;;;;;;;27.50;63.00;;;;;;5031754;28;87179;-51
2023/07/17 11:03:28;;;;;;;;;;;27.60;62.90;;;;;;5033482;27;87843;-53
2023/07/17 11:05:57;;;;;;;;;;;27.60;62.80;;;;;;5029610;28;87946;-50
2023/07/17 11:08:26;;;;;;;;;;;27.60;62.80;;;;;;5026875;28;89616;-51
2023/07/17 11:10:52;;;;;;;;;;;27.60;62.60;;;;;;5033786;28;87027;-53
2023/07/17 11:13:18;;;;;;;;;;;27.60;62.60;;;;;;5032556;28;88088;-56
2023/07/17 11:15:44;;;;;;;;;;;27.60;62.50;;;;;;5031364;28;88118;-53
2023/07/17 11:18:09;;;;;;;;;;;27.70;62.60;;;;;;5032872;28;87150;-54
2023/07/17 11:20:35;;;;;;;;;;;27.70;62.50;;;;;;5032297;28;88064;-54
2023/07/17 11:23:01;;;;;;;;;;;27.70;62.30;;;;;;5031738;28;87960;-56
2023/07/17 11:25:27;;;;;;;;;;;27.80;62.10;;;;;;5036511;28;87145;-57
2023/07/17 11:27:53;;;;;;;;;;;27.70;62.10;;;;;;5030786;28;88262;-49
2023/07/17 11:30:19;;;;;;;;;;;27.70;62.10;;;;;;5033865;28;88042;-49
2023/07/17 11:32:57;;;;;;;;;;;27.80;62.20;;;;;;5029302;28;88290;-52
2023/07/17 11:35:23;;;;;;;;;;;27.80;62.20;;;;;;5027597;28;88335;-52
2023/07/17 11:37:49;;;;;;;;;;;27.80;62.00;;;;;;5033200;28;87191;-56
2023/07/17 11:40:14;;;;;;;;;;;27.80;62.10;;;;;;5031542;28;87406;-50
2023/07/17 11:42:55;;;;;;;;;;;27.80;62.00;;;;;;5033430;28;88176;-54
2023/07/17 11:45:25;;;;;;;;;;;27.90;61.90;;;;;;5029820;28;87323;-53
2023/07/17 11:47:57;;;;;;;;;;;27.90;61.80;;;;;;5029408;28;87310;-50
2023/07/17 11:50:23;;;;;;;;;;;27.90;61.50;;;;;;5031368;28;87218;-50
2023/07/17 11:53:03;;;;;;;;;;;27.90;61.60;;;;;;5026964;28;87560;-54
2023/07/17 11:55:35;;;;;;;;;;;27.90;61.50;;;;;;5030752;28;90655;-53
2023/07/17 11:58:00;;;;;;;;;;;27.90;61.50;;;;;;5033786;28;86979;-51
2023/07/17 12:00:26;;;;;;;;;;;27.90;61.50;;;;;;5030379;28;87577;-52
2023/07/17 12:02:51;;;;;;;;;;;28.00;61.60;;;;;;5030715;28;88225;-56
2023/07/17 12:05:17;;;;;;;;;;;28.00;61.30;;;;;;5033035;28;87166;-51
2023/07/17 12:07:43;;;;;;;;;;;28.00;61.20;;;;;;5030999;28;88703;-52
2023/07/17 12:10:09;;;;;;;;;;;28.00;61.30;;;;;;5035329;28;88012;-56
2023/07/17 12:12:35;;;;;;;;;;;28.00;61.30;;;;;;5032233;28;87251;-54
2023/07/17 12:15:01;;;;;;;;;;;28.00;61.20;;;;;;5031537;28;88160;-54
2023/07/17 12:17:26;;;;;;;;;;;28.00;61.30;;;;;;5035649;28;87131;-52
2023/07/17 12:19:52;;;;;;;;;;;28.10;61.30;;;;;;5033660;28;87953;-52
2023/07/17 12:22:17;;;;;;;;;;;28.10;61.20;;;;;;5036021;28;88193;-52
2023/07/17 12:24:43;;;;;;;;;;;28.10;61.20;;;;;;5033653;28;87738;-55
2023/07/17 12:27:08;;;;;;;;;;;28.10;61.10;;;;;;5035469;28;87735;-52
2023/07/17 12:29:34;;;;;;;;;;;28.10;61.00;;;;;;5032852;28;88234;-52
2023/07/17 12:31:59;;;;;;;;;;;28.20;61.20;;;;;;5031296;28;87472;-53
2023/07/17 12:34:25;;;;;;;;;;;28.20;61.10;;;;;;5033270;28;88314;-56
2023/07/17 12:36:50;;;;;;;;;;;28.20;60.90;;;;;;5035917;28;86955;-54
2023/07/17 12:39:16;;;;;;;;;;;28.20;60.80;;;;;;5034120;28;87888;-53
2023/07/17 12:41:42;;;;;;;;;;;28.20;60.80;;;;;;5034499;28;88687;-54
2023/07/17 12:44:08;;;;;;;;;;;28.20;60.80;;;;;;5034034;28;88031;-52
2023/07/17 12:46:33;;;;;;;;;;;28.20;60.60;;;;;;5033413;28;88634;-52
2023/07/17 12:48:59;;;;;;;;;;;28.30;60.70;;;;;;5033466;28;88092;-55
2023/07/17 12:51:25;;;;;;;;;;;28.30;60.60;;;;;;5034818;28;87296;-54
2023/07/17 12:53:51;;;;;;;;;;;28.30;60.60;;;;;;5035164;28;88044;-56
2023/07/17 12:56:16;;;;;;;;;;;28.30;60.50;;;;;;5032739;28;87977;-55
2023/07/17 12:58:42;;;;;;;;;;;28.30;60.40;;;;;;5036727;28;87595;-50
2023/07/17 13:01:07;;;;;;;;;;;28.40;60.40;;;;;;5032876;28;87399;-55
2023/07/17 13:03:33;;;;;;;;;;;28.40;60.40;;;;;;5032257;28;87081;-55
2023/07/17 13:05:58;;;;;;;;;;;28.30;60.10;;;;;;5032164;28;87481;-55
2023/07/17 13:08:24;;;;;;;;;;;28.30;60.20;;;;;;5034786;28;89112;-52
2023/07/17 13:10:49;;;;;;;;;;;28.40;60.20;;;;;;5034093;28;87010;-52
2023/07/17 13:13:15;;;;;;;;;;;28.40;60.00;;;;;;5037619;27;87353;-53
2023/07/17 13:15:40;;;;;;;;;;;28.50;60.00;;;;;;5034169;28;87107;-55
2023/07/17 13:18:06;;;;;;;;;;;28.50;59.90;;;;;;5033927;28;87241;-57
2023/07/17 13:20:31;;;;;;;;;;;28.50;60.00;;;;;;5034105;28;88282;-56
2023/07/17 13:22:57;;;;;;;;;;;28.50;59.80;;;;;;5031999;28;87192;-51
2023/07/17 13:25:22;;;;;;;;;;;28.60;59.40;;;;;;5035433;28;87481;-51
2023/07/17 13:27:48;;;;;;;;;;;28.60;59.40;;;;;;5032467;27;88226;-50
2023/07/17 13:30:13;;;;;;;;;;;28.60;59.20;;;;;;5035584;28;87570;-52
2023/07/17 13:32:39;;;;;;;;;;;28.60;59.50;;;;;;5028903;28;88503;-52
2023/07/17 13:35:05;;;;;;;;;;;28.60;59.40;;;;;;5038494;28;88008;-52
2023/07/17 13:37:30;;;;;;;;;;;28.70;59.10;;;;;;5032871;28;88553;-55
2023/07/17 13:39:56;;;;;;;;;;;28.70;59.10;;;;;;5032754;28;88074;-58
2023/07/17 13:42:22;;;;;;;;;;;28.70;59.00;;;;;;5034820;28;87400;-49
2023/07/17 13:44:47;;;;;;;;;;;28.70;58.50;;;;;;5033738;28;87487;-50
2023/07/17 13:47:13;;;;;;;;;;;28.80;58.70;;;;;;5028001;28;91226;-51
2023/07/17 13:49:38;;;;;;;;;;;28.80;58.40;;;;;;5034150;28;86411;-54
2023/07/17 13:52:04;;;;;;;;;;;28.80;58.50;;;;;;5031531;28;87100;-53
2023/07/17 13:54:29;;;;;;;;;;;28.90;58.50;;;;;;5033021;28;87246;-53
2023/07/17 13:56:55;;;;;;;;;;;28.90;58.30;;;;;;5037512;28;88080;-54
2023/07/17 13:59:20;;;;;;;;;;;28.90;58.50;;;;;;5032385;28;87923;-56
2023/07/17 14:01:46;;;;;;;;;;;29.00;58.20;;;;;;5033754;28;87236;-56
2023/07/17 14:04:11;;;;;;;;;;;28.90;58.40;;;;;;5034242;28;90515;-55
2023/07/17 14:06:37;;;;;;;;;;;29.00;58.20;;;;;;5031346;28;88063;-51
2023/07/17 14:09:02;;;;;;;;;;;29.00;58.10;;;;;;5035164;28;87508;-56